Time;durP1;ratioP1;P1;durP2;ratioP2;P2;SDS_P1;SDS_P2;PMS_P1;PMS_P2;Temp;Humidity;BMP_temperature;BMP_pressure;BME280_temperature;BME280_humidity;BME280_pressure;Samples;Min_cycle;Max_cycle;Signal;HPM_P1;HPM_P2
2023/03/16 00:03:00;;;;;;;1.15;0.80;;;18.70;52.60;;;;;;6271976;28;20067;-68
2023/03/16 00:06:01;;;;;;;1.38;0.90;;;18.70;52.60;;;;;;6272190;28;20036;-69
2023/03/16 00:09:03;;;;;;;1.25;0.80;;;18.70;52.60;;;;;;6271828;28;20106;-68
2023/03/16 00:12:03;;;;;;;1.55;0.80;;;18.70;52.60;;;;;;6271830;28;20021;-69
2023/03/16 00:15:05;;;;;;;1.90;0.85;;;18.70;52.60;;;;;;6271700;28;20477;-68
2023/03/16 00:18:06;;;;;;;1.80;1.02;;;18.70;52.60;;;;;;6271893;28;20028;-69
2023/03/16 00:21:06;;;;;;;1.80;1.10;;;18.70;52.60;;;;;;6271689;28;20104;-68
2023/03/16 00:24:07;;;;;;;1.50;0.90;;;18.70;52.60;;;;;;6271511;28;20482;-68
2023/03/16 00:27:13;;;;;;;0.70;0.70;;;18.70;52.60;;;;;;6271311;28;20017;-69
2023/03/16 00:30:14;;;;;;;1.95;0.90;;;18.70;52.60;;;;;;6271418;28;20495;-69
2023/03/16 00:33:15;;;;;;;1.75;0.90;;;18.70;52.60;;;;;;6271101;28;20086;-69
2023/03/16 00:36:16;;;;;;;0.90;0.70;;;18.70;52.60;;;;;;6253551;28;20441;-69
2023/03/16 00:39:17;;;;;;;1.30;0.95;;;18.70;52.60;;;;;;6271421;28;20121;-68
2023/03/16 00:42:18;;;;;;;1.70;0.90;;;18.70;52.60;;;;;;6271362;28;20096;-69
2023/03/16 00:45:19;;;;;;;1.55;0.80;;;18.70;52.60;;;;;;6271097;28;20126;-68
2023/03/16 00:48:23;;;;;;;1.13;0.60;;;18.70;52.60;;;;;;6271372;28;20036;-69
2023/03/16 00:51:24;;;;;;;2.08;0.90;;;18.70;52.60;;;;;;6271124;28;20046;-69
2023/03/16 00:54:25;;;;;;;1.85;1.10;;;18.70;52.60;;;;;;6271119;28;20087;-69
2023/03/16 00:57:27;;;;;;;1.17;0.93;;;18.70;52.60;;;;;;6270881;28;20017;-69
2023/03/16 01:00:28;;;;;;;1.20;0.80;;;18.70;52.60;;;;;;6270558;28;20021;-68
2023/03/16 01:03:29;;;;;;;0.80;0.65;;;18.70;52.60;;;;;;6270057;28;20028;-69
2023/03/16 01:06:30;;;;;;;2.30;1.00;;;18.70;52.60;;;;;;6271181;28;20028;-69
2023/03/16 01:09:35;;;;;;;1.27;0.88;;;18.70;52.60;;;;;;6270972;28;20074;-69
2023/03/16 01:12:36;;;;;;;;;;;18.70;52.60;;;;;;6271175;28;20021;-69
2023/03/16 01:15:37;;;;;;;1.20;0.68;;;18.70;52.60;;;;;;6252515;28;20391;-70
2023/03/16 01:18:38;;;;;;;1.38;0.93;;;18.70;52.60;;;;;;6270450;28;20532;-67
2023/03/16 01:21:41;;;;;;;1.15;0.80;;;18.70;52.60;;;;;;6270472;28;20025;-69
2023/03/16 01:24:45;;;;;;;1.25;0.80;;;18.70;52.60;;;;;;6270312;28;20250;-69
2023/03/16 01:27:46;;;;;;;2.50;1.00;;;18.70;52.60;;;;;;6270395;28;20025;-70
2023/03/16 01:30:47;;;;;;;1.17;0.88;;;18.70;52.60;;;;;;6269989;28;20430;-68
2023/03/16 01:33:48;;;;;;;2.58;0.95;;;18.70;52.60;;;;;;6252180;28;20025;-69
2023/03/16 01:36:50;;;;;;;1.67;1.00;;;18.70;52.60;;;;;;6269861;28;20090;-69
2023/03/16 01:39:50;;;;;;;1.15;0.85;;;18.70;52.60;;;;;;6270224;28;20048;-68
2023/03/16 01:43:00;;;;;;;1.73;0.80;;;18.70;52.60;;;;;;6251979;28;20077;-69
2023/03/16 01:46:04;;;;;;;1.75;0.85;;;18.70;52.60;;;;;;6270073;28;20036;-68
2023/03/16 01:49:13;;;;;;;0.93;0.70;;;18.70;52.60;;;;;;6269347;28;20033;-69
2023/03/16 01:52:20;;;;;;;1.50;0.70;;;18.70;52.60;;;;;;6268500;28;20032;-68
2023/03/16 01:55:21;;;;;;;1.42;0.80;;;18.70;52.60;;;;;;6269518;28;20028;-68
2023/03/16 01:58:22;;;;;;;1.55;1.08;;;18.70;52.50;;;;;;6251721;28;20036;-69
2023/03/16 02:01:25;;;;;;;1.20;0.77;;;18.70;52.50;;;;;;6269811;28;20029;-69
2023/03/16 02:04:31;;;;;;;1.70;0.85;;;18.70;52.60;;;;;;6269448;28;20025;-70
2023/03/16 02:07:39;;;;;;;2.30;0.80;;;18.70;52.60;;;;;;6269492;28;20027;-68
2023/03/16 02:10:40;;;;;;;1.05;0.70;;;18.70;52.50;;;;;;6251339;28;20041;-69
2023/03/16 02:13:42;;;;;;;0.80;0.60;;;18.70;52.50;;;;;;6269608;28;20025;-69
2023/03/16 02:16:43;;;;;;;1.23;0.82;;;18.60;52.40;;;;;;6269159;28;20395;-68
2023/03/16 02:20:12;;;;;;;1.25;0.80;;;18.60;52.40;;;;;;6269354;28;20026;-67
2023/03/16 02:23:18;;;;;;;1.02;0.80;;;18.60;52.40;;;;;;6269175;28;20032;-69
2023/03/16 02:26:24;;;;;;;1.42;0.80;;;18.70;52.50;;;;;;6269314;28;20478;-69
2023/03/16 02:29:55;;;;;;;1.33;0.85;;;18.70;52.50;;;;;;6269142;28;20177;-69
2023/03/16 02:32:56;;;;;;;1.13;0.80;;;18.70;52.50;;;;;;6269456;28;20028;-69
2023/03/16 02:35:57;;;;;;;1.38;0.80;;;18.70;52.50;;;;;;6268936;28;20028;-68
2023/03/16 02:38:57;;;;;;;1.00;0.70;;;18.60;52.30;;;;;;6251367;28;20101;-69
2023/03/16 02:42:00;;;;;;;1.70;0.90;;;18.70;52.40;;;;;;6251330;28;20059;-69
2023/03/16 02:45:01;;;;;;;2.08;0.90;;;18.60;52.40;;;;;;6268979;28;20041;-69
2023/03/16 02:48:07;;;;;;;1.70;0.90;;;18.70;52.50;;;;;;6250833;28;20032;-69
2023/03/16 02:51:08;;;;;;;2.47;0.90;;;18.70;52.40;;;;;;6269019;28;20501;-68
2023/03/16 02:54:09;;;;;;;0.90;0.70;;;18.60;52.40;;;;;;6285107;28;20027;-68
2023/03/16 02:57:10;;;;;;;1.20;0.63;;;18.70;52.40;;;;;;6275653;28;20013;-69
2023/03/16 03:00:16;;;;;;;1.45;0.80;;;18.70;52.50;;;;;;6293610;28;20043;-69
2023/03/16 03:03:17;;;;;;;2.35;0.70;;;18.60;52.30;;;;;;6293801;28;20052;-69
2023/03/16 03:06:18;;;;;;;1.25;0.70;;;18.60;52.30;;;;;;6293646;28;20024;-70
2023/03/16 03:09:19;;;;;;;0.85;0.70;;;18.70;52.40;;;;;;6293256;28;20025;-69
2023/03/16 03:12:20;;;;;;;1.40;0.73;;;18.60;52.30;;;;;;6275910;28;20024;-69
2023/03/16 03:15:21;;;;;;;0.80;0.60;;;18.60;52.30;;;;;;6275510;28;20025;-69
2023/03/16 03:18:24;;;;;;;1.35;0.63;;;18.70;52.30;;;;;;6275425;28;20028;-69
2023/03/16 03:21:24;;;;;;;1.08;0.70;;;18.60;52.20;;;;;;6275498;28;20029;-68
2023/03/16 03:24:26;;;;;;;1.45;0.82;;;18.60;52.20;;;;;;6279385;28;20385;-70
2023/03/16 03:27:27;;;;;;;0.90;0.70;;;18.70;52.30;;;;;;6279967;28;20032;-68
2023/03/16 03:30:28;;;;;;;1.05;0.68;;;18.60;52.30;;;;;;6297617;28;20048;-69
2023/03/16 03:33:29;;;;;;;0.90;0.60;;;18.60;52.20;;;;;;6297879;28;20024;-69
2023/03/16 03:36:31;;;;;;;1.48;0.70;;;18.60;52.20;;;;;;6298046;28;20056;-68
2023/03/16 03:39:32;;;;;;;1.02;0.75;;;18.60;52.20;;;;;;6297387;28;20024;-69
2023/03/16 03:42:33;;;;;;;1.50;0.60;;;18.60;52.20;;;;;;6297557;28;20078;-68
2023/03/16 03:45:34;;;;;;;0.80;0.60;;;18.60;52.10;;;;;;6297487;28;20119;-69
2023/03/16 03:48:34;;;;;;;1.33;0.68;;;18.70;52.40;;;;;;6279331;28;20094;-69
2023/03/16 03:51:35;;;;;;;1.45;0.90;;;18.70;52.20;;;;;;6279397;28;20115;-69
2023/03/16 03:54:36;;;;;;;1.60;0.82;;;18.70;52.20;;;;;;6297372;28;20109;-69
2023/03/16 03:57:37;;;;;;;1.75;0.90;;;18.60;52.10;;;;;;6297329;28;20444;-70
2023/03/16 04:00:38;;;;;;;1.13;0.70;;;18.70;52.20;;;;;;6297031;28;20035;-69
2023/03/16 04:03:39;;;;;;;1.08;0.70;;;18.70;52.20;;;;;;6279036;28;20097;-69
2023/03/16 04:06:40;;;;;;;1.20;0.60;;;18.60;52.20;;;;;;6297302;28;20036;-70
2023/03/16 04:09:41;;;;;;;1.20;0.80;;;18.70;52.20;;;;;;6296979;28;20543;-69
2023/03/16 04:12:41;;;;;;;0.90;0.65;;;18.70;52.30;;;;;;6297050;28;20025;-69
2023/03/16 04:15:45;;;;;;;1.85;0.98;;;18.70;52.20;;;;;;6296930;28;20066;-68
2023/03/16 04:18:46;;;;;;;0.98;0.55;;;18.70;52.20;;;;;;6296636;28;20021;-69
2023/03/16 04:21:47;;;;;;;0.85;0.60;;;18.60;52.10;;;;;;6296702;28;20055;-70
2023/03/16 04:24:48;;;;;;;1.60;0.70;;;18.60;52.10;;;;;;6296554;28;20456;-69
2023/03/16 04:27:50;;;;;;;1.52;0.65;;;18.60;52.70;;;;;;6278679;28;20035;-69
2023/03/16 04:30:55;;;;;;;0.93;0.70;;;18.70;52.10;;;;;;6296152;28;20052;-70
2023/03/16 04:33:55;;;;;;;0.90;0.65;;;18.60;52.10;;;;;;6295563;28;20078;-69
2023/03/16 04:36:56;;;;;;;1.85;0.73;;;18.70;52.10;;;;;;6296451;28;20021;-69
2023/03/16 04:39:57;;;;;;;1.77;0.80;;;18.60;52.10;;;;;;6278404;28;20028;-69
2023/03/16 04:42:57;;;;;;;0.40;0.40;;;18.60;52.00;;;;;;6295883;28;20064;-68
2023/03/16 04:46:02;;;;;;;1.48;0.82;;;18.60;51.80;;;;;;6296260;28;20028;-69
2023/03/16 04:49:03;;;;;;;1.95;0.77;;;18.60;51.90;;;;;;6295817;28;20036;-69
2023/03/16 04:52:04;;;;;;;1.30;0.70;;;18.70;52.00;;;;;;6296022;28;20385;-69
2023/03/16 04:55:05;;;;;;;0.93;0.60;;;18.60;51.90;;;;;;6277665;28;20058;-69
2023/03/16 04:58:06;;;;;;;0.90;0.73;;;18.60;51.80;;;;;;6296173;28;20492;-69
2023/03/16 05:01:07;;;;;;;0.73;0.60;;;18.60;52.00;;;;;;6277703;28;20025;-69
2023/03/16 05:04:08;;;;;;;1.58;0.85;;;18.60;52.00;;;;;;6295578;28;20032;-69
2023/03/16 05:07:09;;;;;;;2.17;0.70;;;18.60;51.80;;;;;;6295478;28;20024;-68
2023/03/16 05:10:11;;;;;;;1.20;0.80;;;18.60;52.00;;;;;;6295505;28;20409;-68
2023/03/16 05:13:12;;;;;;;1.23;0.68;;;18.60;51.90;;;;;;6295309;28;20440;-69
2023/03/16 05:16:13;;;;;;;0.90;0.52;;;18.60;51.80;;;;;;6295209;28;20093;-70
2023/03/16 05:19:14;;;;;;;0.70;0.45;;;18.60;51.90;;;;;;6277217;28;20059;-69
2023/03/16 05:22:15;;;;;;;0.52;0.50;;;18.60;51.80;;;;;;6295178;28;20029;-67
2023/03/16 05:25:17;;;;;;;1.13;0.50;;;18.60;51.80;;;;;;6295160;28;20028;-69
2023/03/16 05:28:18;;;;;;;1.17;0.80;;;18.70;51.70;;;;;;6295300;28;20024;-69
2023/03/16 05:31:19;;;;;;;0.57;0.50;;;18.70;51.70;;;;;;6277101;28;20377;-69
2023/03/16 05:34:19;;;;;;;2.17;0.52;;;18.60;51.90;;;;;;6294800;28;20480;-69
2023/03/16 05:37:20;;;;;;;0.60;0.50;;;18.60;51.90;;;;;;6276976;28;20029;-69
2023/03/16 05:40:22;;;;;;;0.75;0.60;;;18.60;51.70;;;;;;6276916;28;20032;-69
2023/03/16 05:43:22;;;;;;;1.27;0.70;;;18.60;51.70;;;;;;6276559;28;20044;-70
2023/03/16 05:46:23;;;;;;;1.05;0.60;;;18.60;51.80;;;;;;6294356;28;20028;-69
2023/03/16 05:49:24;;;;;;;1.00;0.70;;;18.60;51.70;;;;;;6287070;28;20036;-70
2023/03/16 05:52:25;;;;;;;2.22;0.85;;;18.60;51.60;;;;;;6293731;28;20099;-70
2023/03/16 05:55:26;;;;;;;1.50;0.73;;;18.60;51.60;;;;;;6293773;28;20470;-71
2023/03/16 05:58:27;;;;;;;2.55;1.00;;;18.60;51.60;;;;;;6296411;28;20021;-71
2023/03/16 06:01:28;;;;;;;2.97;0.55;;;18.60;51.60;;;;;;6293652;28;20028;-70
2023/03/16 06:04:28;;;;;;;3.70;0.65;;;18.70;51.90;;;;;;6275420;28;20032;-70
2023/03/16 06:07:29;;;;;;;1.00;0.73;;;18.60;51.70;;;;;;6293911;28;20060;-70
2023/03/16 06:10:30;;;;;;;3.03;0.70;;;18.70;51.80;;;;;;6293284;28;20435;-70
2023/03/16 06:13:31;;;;;;;2.30;1.25;;;18.60;51.60;;;;;;6281451;28;20056;-71
2023/03/16 06:16:31;;;;;;;3.05;1.10;;;18.60;51.60;;;;;;6318881;28;20028;-70
2023/03/16 06:19:32;;;;;;;2.05;0.55;;;18.60;51.70;;;;;;6305033;28;20070;-70
2023/03/16 06:22:33;;;;;;;1.02;0.50;;;18.60;51.80;;;;;;6293540;28;20085;-69
2023/03/16 06:25:34;;;;;;;1.63;0.50;;;18.60;51.80;;;;;;6293374;28;20425;-70
2023/03/16 06:28:35;;;;;;;1.20;0.60;;;18.60;51.80;;;;;;6276312;28;20024;-69
2023/03/16 06:31:35;;;;;;;1.38;0.65;;;18.60;51.90;;;;;;6318686;28;20059;-70
2023/03/16 06:34:36;;;;;;;0.93;0.50;;;18.70;52.00;;;;;;6309589;28;20051;-70
2023/03/16 06:37:37;;;;;;;3.33;0.50;;;18.70;52.00;;;;;;6275353;28;20025;-70
2023/03/16 06:40:38;;;;;;;1.15;0.63;;;18.70;52.10;;;;;;6288439;28;20091;-70
2023/03/16 06:43:41;;;;;;;1.38;0.60;;;18.70;52.10;;;;;;6293076;28;20580;-69
2023/03/16 06:46:42;;;;;;;0.93;0.63;;;18.70;52.10;;;;;;6288842;28;20560;-69
2023/03/16 06:49:42;;;;;;;1.23;0.60;;;18.70;52.10;;;;;;6273261;28;20036;-70
2023/03/16 06:52:43;;;;;;;1.48;0.70;;;18.70;52.10;;;;;;6292869;28;20021;-69
2023/03/16 06:55:44;;;;;;;0.47;0.47;;;18.70;52.10;;;;;;6291065;28;20048;-68
2023/03/16 06:58:44;;;;;;;0.60;0.50;;;18.70;52.10;;;;;;6295571;28;20021;-67
2023/03/16 07:01:45;;;;;;;3.53;0.70;;;18.70;52.10;;;;;;6323202;28;20508;-69
2023/03/16 07:04:46;;;;;;;0.95;0.55;;;18.70;52.10;;;;;;6304851;28;20028;-68
2023/03/16 07:07:47;;;;;;;0.70;0.47;;;18.70;52.20;;;;;;6298471;28;20029;-69
2023/03/16 07:10:50;;;;;;;0.95;0.60;;;18.70;52.20;;;;;;6299419;28;20031;-70
2023/03/16 07:13:51;;;;;;;2.03;0.70;;;18.70;52.20;;;;;;6299957;28;20384;-69
2023/03/16 07:16:51;;;;;;;4.10;0.70;;;18.70;52.20;;;;;;6281822;28;20432;-70
2023/03/16 07:19:52;;;;;;;1.58;0.60;;;18.70;52.20;;;;;;6300026;28;20547;-70
2023/03/16 07:22:53;;;;;;;1.27;0.88;;;18.70;52.20;;;;;;6281751;28;20103;-70
2023/03/16 07:25:54;;;;;;;0.73;0.52;;;18.70;52.20;;;;;;6299596;28;20025;-69
2023/03/16 07:28:55;;;;;;;1.40;0.60;;;18.70;52.20;;;;;;6298236;28;20508;-70
2023/03/16 07:31:55;;;;;;;1.95;0.80;;;18.70;52.20;;;;;;6299985;28;20025;-70
2023/03/16 07:34:58;;;;;;;1.05;0.63;;;18.70;52.30;;;;;;6286088;28;20398;-69
2023/03/16 07:37:59;;;;;;;1.52;0.63;;;18.70;52.20;;;;;;6298203;28;20024;-69
2023/03/16 07:40:59;;;;;;;1.38;0.82;;;18.70;52.30;;;;;;6280287;28;20692;-68
2023/03/16 07:44:00;;;;;;;0.80;0.68;;;18.70;52.30;;;;;;6298252;28;20033;-70
2023/03/16 07:47:01;;;;;;;0.75;0.55;;;18.70;52.30;;;;;;6296982;28;20077;-68
2023/03/16 07:50:04;;;;;;;1.13;0.70;;;18.70;52.30;;;;;;6300998;28;20520;-69
2023/03/16 07:53:04;;;;;;;0.60;0.50;;;18.70;52.30;;;;;;6294220;28;20119;-68
2023/03/16 07:56:06;;;;;;;3.25;0.95;;;18.70;52.30;;;;;;6304650;28;20020;-68
2023/03/16 07:59:07;;;;;;;1.70;0.90;;;18.70;52.40;;;;;;6313121;28;20539;-68
2023/03/16 08:02:16;;;;;;;1.92;0.80;;;18.70;52.30;;;;;;6295028;28;20515;-69
2023/03/16 08:05:17;;;;;;;2.10;0.75;;;18.70;52.40;;;;;;6304693;28;20035;-69
2023/03/16 08:08:18;;;;;;;1.10;0.77;;;18.70;52.40;;;;;;6298606;28;20064;-69
2023/03/16 08:11:22;;;;;;;0.88;0.55;;;18.70;52.40;;;;;;6302337;28;20427;-68
2023/03/16 08:14:24;;;;;;;1.08;0.60;;;18.70;52.40;;;;;;6299615;28;20439;-69
2023/03/16 08:17:24;;;;;;;0.80;0.50;;;18.70;52.40;;;;;;6304485;28;20035;-69
2023/03/16 08:20:25;;;;;;;1.50;0.70;;;18.70;52.40;;;;;;6322578;28;20027;-69
2023/03/16 08:23:28;;;;;;;1.42;0.55;;;18.70;52.40;;;;;;6295513;28;20032;-70
2023/03/16 08:26:28;;;;;;;0.80;0.60;;;18.70;52.40;;;;;;6298275;28;20050;-69
2023/03/16 08:29:29;;;;;;;1.98;1.00;;;18.70;52.40;;;;;;6322451;28;20051;-69
2023/03/16 08:32:32;;;;;;;1.65;0.80;;;18.70;52.50;;;;;;6303896;28;20020;-69
2023/03/16 08:35:33;;;;;;;1.15;0.70;;;18.70;52.50;;;;;;6300945;28;20031;-69
2023/03/16 08:38:33;;;;;;;1.10;0.65;;;18.70;52.40;;;;;;6292493;28;20028;-70
2023/03/16 08:41:34;;;;;;;1.13;0.57;;;18.70;52.40;;;;;;6277401;28;20025;-69
2023/03/16 08:44:35;;;;;;;0.93;0.55;;;18.70;52.50;;;;;;6270604;28;20041;-69
2023/03/16 08:47:37;;;;;;;0.98;0.70;;;18.70;52.50;;;;;;6287837;28;20350;-69
2023/03/16 08:50:42;;;;;;;1.50;0.70;;;18.70;52.50;;;;;;6296453;28;20119;-69
2023/03/16 08:53:44;;;;;;;0.40;0.40;;;18.70;52.50;;;;;;6312218;28;20024;-69
2023/03/16 08:56:44;;;;;;;1.13;0.63;;;18.70;52.50;;;;;;6298971;28;20028;-69
2023/03/16 08:59:47;;;;;;;1.10;0.60;;;18.70;52.50;;;;;;6311118;28;20069;-69
2023/03/16 09:02:48;;;;;;;1.00;0.65;;;18.70;52.50;;;;;;6308819;28;20063;-69
2023/03/16 09:05:49;;;;;;;1.35;0.47;;;18.70;52.50;;;;;;6296321;28;20086;-70
2023/03/16 09:08:50;;;;;;;1.15;0.60;;;18.70;52.50;;;;;;6296353;28;20036;-69
2023/03/16 09:11:51;;;;;;;0.95;0.50;;;18.70;52.50;;;;;;6295916;28;20039;-68
2023/03/16 09:14:53;;;;;;;1.27;0.60;;;18.70;52.50;;;;;;6296317;28;20016;-69
2023/03/16 09:18:02;;;;;;;1.20;0.60;;;18.70;52.50;;;;;;6296155;28;20021;-69
2023/03/16 09:21:05;;;;;;;1.58;0.68;;;18.70;52.50;;;;;;6294285;28;20027;-70
2023/03/16 09:24:07;;;;;;;1.00;0.60;;;18.70;52.50;;;;;;6276017;28;20024;-70
2023/03/16 09:27:08;;;;;;;0.93;0.50;;;18.70;52.60;;;;;;6295259;28;20123;-70
2023/03/16 09:30:10;;;;;;;2.03;0.60;;;18.70;52.50;;;;;;6294844;28;20116;-69
2023/03/16 09:33:10;;;;;;;0.47;0.47;;;18.70;52.50;;;;;;6305143;28;20032;-69
2023/03/16 09:36:12;;;;;;;2.83;0.50;;;18.70;52.50;;;;;;6294435;28;20493;-69
2023/03/16 09:39:14;;;;;;;1.25;0.70;;;18.70;52.50;;;;;;6268363;28;20048;-70
2023/03/16 09:42:22;;;;;;;21.85;1.00;;;18.70;52.60;;;;;;6256095;28;20021;-70
2023/03/16 09:46:04;;;;;;;28.02;1.30;;;18.80;52.50;;;;;;6319683;28;20111;-70
2023/03/16 09:49:05;;;;;;;23.38;1.45;;;18.80;52.40;;;;;;6301512;28;20186;-69
2023/03/16 09:52:29;;;;;;;24.77;1.42;;;18.80;52.40;;;;;;6294785;28;20020;-69
2023/03/16 09:55:38;;;;;;;7.22;1.00;;;18.80;52.40;;;;;;6301416;28;20016;-70
2023/03/16 09:58:39;;;;;;;5.55;0.80;;;18.80;52.40;;;;;;6312994;28;20031;-70
2023/03/16 10:01:52;;;;;;;13.38;0.80;;;18.80;52.50;;;;;;6320357;28;20032;-70
2023/03/16 10:05:20;;;;;;;4.13;0.70;;;18.80;52.50;;;;;;6302530;28;20028;-70
2023/03/16 10:08:38;;;;;;;9.52;1.02;;;18.80;52.60;;;;;;6274664;28;20094;-70
2023/03/16 10:11:44;;;;;;;4.32;0.73;;;18.70;52.50;;;;;;6294320;28;20066;-70
2023/03/16 10:15:18;;;;;;;4.78;0.80;;;18.80;52.60;;;;;;6290394;28;20020;-70
2023/03/16 10:18:27;;;;;;;5.45;0.60;;;18.70;52.50;;;;;;6281178;28;20665;-70
2023/03/16 10:21:32;;;;;;;5.20;0.70;;;18.70;52.60;;;;;;6319554;28;20539;-70
2023/03/16 10:24:57;;;;;;;3.60;0.85;;;18.70;52.60;;;;;;6305453;28;20042;-70
2023/03/16 10:27:58;;;;;;;2.25;0.75;;;18.70;52.60;;;;;;6319334;28;20024;-70
2023/03/16 10:31:02;;;;;;;2.25;0.98;;;18.70;52.60;;;;;;6293667;28;20029;-70
2023/03/16 10:34:05;;;;;;;0.80;0.40;;;18.80;52.60;;;;;;6298090;28;20036;-70
2023/03/16 10:37:12;;;;;;;2.55;0.70;;;18.80;52.60;;;;;;6299506;28;20042;-70
2023/03/16 10:40:14;;;;;;;2.42;0.63;;;18.80;52.60;;;;;;6300622;28;20017;-70
2023/03/16 10:43:15;;;;;;;7.63;1.05;;;18.80;52.60;;;;;;6281970;28;20119;-70
2023/03/16 10:46:16;;;;;;;3.45;0.85;;;18.80;52.60;;;;;;6299153;28;20035;-70
2023/03/16 10:49:26;;;;;;;3.10;0.80;;;18.70;52.60;;;;;;6288701;28;20139;-70
2023/03/16 10:52:45;;;;;;;6.15;0.77;;;18.70;52.60;;;;;;6281571;28;20070;-70
2023/03/16 10:55:47;;;;;;;1.42;0.50;;;18.70;52.60;;;;;;6284980;28;20059;-70
2023/03/16 10:58:48;;;;;;;3.70;0.80;;;18.70;52.60;;;;;;6277074;28;20024;-70
2023/03/16 11:01:48;;;;;;;1.17;0.68;;;18.70;52.60;;;;;;6300914;28;20028;-70
2023/03/16 11:04:50;;;;;;;2.00;0.63;;;18.70;52.60;;;;;;6297940;28;20027;-70
2023/03/16 11:07:58;;;;;;;2.30;0.80;;;18.70;52.60;;;;;;6280763;28;20412;-70
2023/03/16 11:11:07;;;;;;;3.20;0.80;;;18.70;52.60;;;;;;6297651;28;20021;-70
2023/03/16 11:14:14;;;;;;;1.60;0.73;;;18.80;52.60;;;;;;6276187;28;20123;-70
2023/03/16 11:17:33;;;;;;;3.25;0.93;;;18.80;52.60;;;;;;6281789;28;20025;-69
2023/03/16 11:20:34;;;;;;;1.65;0.65;;;18.80;52.70;;;;;;6294637;28;20024;-70
2023/03/16 11:23:42;;;;;;;1.92;0.63;;;18.80;52.70;;;;;;6323613;28;20067;-70
2023/03/16 11:26:53;;;;;;;3.80;0.60;;;18.70;52.60;;;;;;6308539;28;20082;-70
2023/03/16 11:30:12;;;;;;;1.92;0.65;;;18.70;52.60;;;;;;6286767;28;20028;-69
2023/03/16 11:33:14;;;;;;;1.30;0.70;;;18.70;52.60;;;;;;6273117;28;20017;-69
2023/03/16 11:36:42;;;;;;;0.90;0.60;;;18.80;52.70;;;;;;6295355;28;20016;-69
2023/03/16 11:39:57;;;;;;;0.88;0.70;;;18.80;52.70;;;;;;6299428;28;20218;-69
2023/03/16 11:43:24;;;;;;;2.28;0.90;;;18.70;52.70;;;;;;6281476;28;20025;-69
2023/03/16 11:46:48;;;;;;;1.67;0.70;;;18.70;52.60;;;;;;6291363;28;20478;-69
2023/03/16 11:50:18;;;;;;;1.85;0.73;;;18.70;52.60;;;;;;6301100;28;20047;-68
2023/03/16 11:53:18;;;;;;;2.25;0.88;;;18.70;52.60;;;;;;6317118;28;20031;-69
2023/03/16 11:56:41;;;;;;;5.00;1.42;;;18.70;52.60;;;;;;6282548;28;20021;-71
2023/03/16 11:59:57;;;;;;;3.22;1.50;;;18.70;52.70;;;;;;6302143;28;20032;-70
2023/03/16 12:03:35;;;;;;;3.42;1.65;;;18.80;52.70;;;;;;6297659;28;20029;-66
2023/03/16 12:06:51;;;;;;;6.35;1.95;;;18.80;52.70;;;;;;6289350;28;20039;-71
2023/03/16 12:10:17;;;;;;;4.00;1.70;;;18.70;52.70;;;;;;6275920;28;20570;-71
2023/03/16 12:13:46;;;;;;;8.93;3.55;;;18.80;52.80;;;;;;6304664;28;20028;-72
2023/03/16 12:17:02;;;;;;;7.95;3.30;;;18.80;52.70;;;;;;6302235;28;20536;-71
2023/03/16 12:20:33;;;;;;;9.88;3.67;;;18.70;52.60;;;;;;6322517;28;20024;-70
2023/03/16 12:23:41;;;;;;;10.48;3.97;;;18.70;52.60;;;;;;6321793;28;20476;-71
2023/03/16 12:26:42;;;;;;;10.23;4.18;;;18.70;52.60;;;;;;6304079;28;20021;-71
2023/03/16 12:30:00;;;;;;;12.10;4.57;;;18.80;52.70;;;;;;6297032;28;20028;-70
2023/03/16 12:33:17;;;;;;;11.85;4.45;;;18.80;52.80;;;;;;6313007;28;20523;-71
2023/03/16 12:36:43;;;;;;;10.77;4.43;;;18.70;52.60;;;;;;6304209;28;20027;-71
2023/03/16 12:39:44;;;;;;;12.93;4.65;;;18.70;52.70;;;;;;6303769;28;20477;-71
2023/03/16 12:43:15;;;;;;;13.57;5.18;;;18.70;52.70;;;;;;6302305;28;20074;-71
2023/03/16 12:46:29;;;;;;;9.98;4.70;;;18.70;52.80;;;;;;6262250;28;20036;-71
2023/03/16 12:49:35;;;;;;;19.48;4.75;;;18.80;52.80;;;;;;6278898;28;20060;-71
2023/03/16 12:52:45;;;;;;;14.68;5.72;;;18.80;52.70;;;;;;6261497;28;20025;-71
2023/03/16 12:55:47;;;;;;;14.52;5.90;;;18.80;52.70;;;;;;6271082;28;20021;-71
2023/03/16 12:58:49;;;;;;;15.75;5.00;;;18.80;52.70;;;;;;6277323;28;20028;-70
2023/03/16 13:01:56;;;;;;;12.85;5.63;;;18.80;52.70;;;;;;6276146;28;20378;-71
2023/03/16 13:05:12;;;;;;;13.85;5.82;;;18.80;52.70;;;;;;6295129;28;20032;-71
2023/03/16 13:08:16;;;;;;;12.90;5.43;;;18.80;52.70;;;;;;6295993;28;20024;-71
2023/03/16 13:11:17;;;;;;;12.70;5.63;;;18.80;52.70;;;;;;6276851;28;20060;-71
2023/03/16 13:14:39;;;;;;;12.70;6.07;;;18.80;52.70;;;;;;6294952;28;20024;-71
2023/03/16 13:17:39;;;;;;;11.23;6.00;;;18.80;52.70;;;;;;6282331;28;20051;-71
2023/03/16 13:20:57;;;;;;;13.82;6.13;;;18.80;52.80;;;;;;6271729;28;20032;-72
2023/03/16 13:24:17;;;;;;;15.15;6.03;;;18.70;52.70;;;;;;6295536;28;20500;-71
2023/03/16 13:27:27;;;;;;;11.27;5.18;;;18.80;52.80;;;;;;6270736;28;20029;-71
2023/03/16 13:30:46;;;;;;;12.07;5.40;;;18.80;52.80;;;;;;6252884;28;20029;-71
2023/03/16 13:33:49;;;;;;;12.52;6.03;;;18.70;52.70;;;;;;6271531;28;20030;-71
2023/03/16 13:36:54;;;;;;;11.63;5.50;;;18.80;52.80;;;;;;6293759;28;20017;-69
2023/03/16 13:40:15;;;;;;;10.50;5.25;;;18.80;52.80;;;;;;6252413;28;20139;-71
2023/03/16 13:43:20;;;;;;;13.75;5.90;;;18.80;52.80;;;;;;6265394;28;20060;-71
2023/03/16 13:46:28;;;;;;;12.23;5.65;;;18.80;52.90;;;;;;6277793;28;20032;-71
2023/03/16 13:49:29;;;;;;;11.77;5.32;;;18.80;52.80;;;;;;6295441;28;20192;-70
2023/03/16 13:52:33;;;;;;;12.95;5.63;;;18.70;52.80;;;;;;6295596;28;20477;-71
2023/03/16 13:55:36;;;;;;;11.82;5.57;;;18.70;52.70;;;;;;6296011;28;20420;-70
2023/03/16 13:58:38;;;;;;;10.85;5.50;;;18.70;52.70;;;;;;6277554;28;20020;-71
2023/03/16 14:01:44;;;;;;;10.38;5.78;;;18.70;52.70;;;;;;6278443;28;20107;-71
2023/03/16 14:04:45;;;;;;;12.23;5.97;;;18.70;52.70;;;;;;6296193;28;20038;-71
2023/03/16 14:07:49;;;;;;;11.10;5.10;;;18.80;52.80;;;;;;6278262;28;20144;-71
2023/03/16 14:10:53;;;;;;;11.70;5.30;;;18.70;52.70;;;;;;6278111;28;20036;-71
2023/03/16 14:13:56;;;;;;;11.23;5.22;;;18.70;52.70;;;;;;6296284;28;20016;-71
2023/03/16 14:17:14;;;;;;;12.20;5.05;;;18.70;52.80;;;;;;6296055;28;20452;-71
2023/03/16 14:20:22;;;;;;;10.40;5.15;;;18.70;52.70;;;;;;6295855;28;20071;-70
2023/03/16 14:23:32;;;;;;;9.65;5.20;;;18.80;52.90;;;;;;6296105;28;20028;-71
2023/03/16 14:26:45;;;;;;;9.15;4.50;;;18.70;52.80;;;;;;6296083;28;20021;-71
2023/03/16 14:29:53;;;;;;;8.77;5.10;;;18.70;52.80;;;;;;6296026;28;20432;-71
2023/03/16 14:33:00;;;;;;;7.95;4.40;;;18.70;52.70;;;;;;6296292;28;20025;-72
2023/03/16 14:36:17;;;;;;;9.80;5.13;;;18.80;52.80;;;;;;6296013;28;20554;-70
2023/03/16 14:39:27;;;;;;;9.10;4.57;;;18.70;52.70;;;;;;6278304;28;20072;-72
2023/03/16 14:42:29;;;;;;;8.60;4.65;;;18.70;52.70;;;;;;6277871;28;20038;-71
2023/03/16 14:45:33;;;;;;;9.25;4.88;;;18.70;52.70;;;;;;6317964;28;20524;-70
2023/03/16 14:48:34;;;;;;;9.45;4.70;;;18.70;52.70;;;;;;6320999;28;20016;-70
2023/03/16 14:51:38;;;;;;;9.10;4.13;;;18.70;52.70;;;;;;6320894;28;20017;-70
2023/03/16 14:54:39;;;;;;;7.50;3.72;;;18.70;52.70;;;;;;6302946;28;20109;-71
2023/03/16 14:57:41;;;;;;;7.60;4.22;;;18.70;52.70;;;;;;6302394;28;20020;-70
2023/03/16 15:00:42;;;;;;;8.52;4.20;;;18.70;52.70;;;;;;6320734;28;20028;-71
2023/03/16 15:03:44;;;;;;;7.93;4.40;;;18.70;52.70;;;;;;6302902;28;20024;-71
2023/03/16 15:06:46;;;;;;;7.75;4.20;;;18.70;52.70;;;;;;6302698;28;20040;-71
2023/03/16 15:09:48;;;;;;;7.22;4.10;;;18.70;52.60;;;;;;6320414;28;20028;-71
2023/03/16 15:12:52;;;;;;;6.57;3.63;;;18.70;52.60;;;;;;6320642;28;20422;-71
2023/03/16 15:15:54;;;;;;;7.18;4.15;;;18.70;52.60;;;;;;6302353;28;20027;-70
2023/03/16 15:18:55;;;;;;;6.57;3.72;;;18.80;52.70;;;;;;6322346;28;20028;-71
2023/03/16 15:21:57;;;;;;;9.13;4.70;;;18.70;52.60;;;;;;6307141;28;20438;-71
2023/03/16 15:25:08;;;;;;;9.07;3.92;;;18.80;52.70;;;;;;6325179;28;20024;-71
2023/03/16 15:28:13;;;;;;;8.75;4.30;;;18.70;52.60;;;;;;6325374;28;20020;-71
2023/03/16 15:31:14;;;;;;;7.15;3.90;;;18.70;52.60;;;;;;6324807;28;20027;-70
2023/03/16 15:34:15;;;;;;;6.40;3.25;;;18.80;52.70;;;;;;6325164;28;20024;-71
2023/03/16 15:37:18;;;;;;;6.30;3.67;;;18.70;52.60;;;;;;6324829;28;20043;-71
2023/03/16 15:40:24;;;;;;;6.88;3.90;;;18.70;52.60;;;;;;6306949;28;20073;-71
2023/03/16 15:43:28;;;;;;;6.72;3.50;;;18.70;52.60;;;;;;6324365;28;20078;-71
2023/03/16 15:46:29;;;;;;;6.97;3.58;;;18.70;52.60;;;;;;6324977;28;20099;-70
2023/03/16 15:49:30;;;;;;;6.55;3.45;;;18.70;52.60;;;;;;6324503;28;20031;-70
2023/03/16 15:52:34;;;;;;;7.05;3.17;;;18.70;53.30;;;;;;6324712;28;20020;-70
2023/03/16 15:55:46;;;;;;;5.72;3.55;;;18.70;52.60;;;;;;6306360;28;20384;-71
2023/03/16 15:58:48;;;;;;;6.88;3.30;;;18.70;53.30;;;;;;6324232;28;20043;-71
2023/03/16 16:01:50;;;;;;;6.70;3.30;;;18.70;52.60;;;;;;6306188;28;20031;-71